»·PEaware :: DAL441 KSNA-KTUS

DAL441 :: KSNA-KTUS

FLIGHT INFORMATION

Flight Status: Arrived
Operator:
Delta Air Lines
More flights by this operator :: More flights under this callsign
Pilot: Kevin M. (7)
Aircraft: BOEING 737-800
(B738)
More flights by this aircraft type
Origin: KSNA John Wayne-Orange Co
United States
Destination: KTUS Tucson Intl
United States
More flights between these airports :: More routes between these airports
Route: +PIGGN2 TCATE IPL J2 GBN DINGO5
File this flight plan on PilotEdge
Remarks:
Altitude:
(Current/Filed)
37,000ft
Speed:
(Current/Filed)
468kts
Departed: 29-Jul-20 07:10 PM
Arrived: 29-Jul-20 08:15 PM
Distance/Time
Traveled:
361nm/1:05
Distance/Time
To Go:
Arrived

Flight Plot

Page will automatically refresh every two minutes.


Map Options




Map Legend


Flown Route
Filed Route
Departure Airport
Arrival Airport
Navaid (VOR, NDB)
Fix

Horizontal Profiles

Position Reports

Time Latitude Longitude Heading Altitude Ground
Speed
29-Jul-20 18:54 33.678316 -117.863058 117 67ft 0kts
29-Jul-20 18:55 33.678316 -117.863058 117 67ft 0kts
29-Jul-20 18:56 33.678316 -117.863058 117 67ft 0kts
29-Jul-20 18:57 33.678316 -117.863058 117 67ft 0kts
29-Jul-20 18:58 33.678328 -117.863084 117 67ft 0kts
29-Jul-20 18:59 33.678328 -117.863086 117 67ft 0kts
29-Jul-20 19:00 33.678451 -117.863377 117 67ft 2kts
29-Jul-20 19:01 33.678425 -117.863750 26 67ft 0kts
29-Jul-20 19:02 33.678421 -117.863752 26 67ft 0kts
29-Jul-20 19:03 33.678421 -117.863752 26 67ft 0kts
29-Jul-20 19:04 33.678421 -117.863752 26 67ft 0kts
29-Jul-20 19:05 33.678726 -117.863559 28 67ft 9kts
29-Jul-20 19:05 33.680447 -117.862497 334 67ft 2kts
29-Jul-20 19:07 33.680649 -117.863018 291 67ft 0kts
29-Jul-20 19:08 33.680964 -117.863788 299 67ft 14kts
29-Jul-20 19:09 33.681321 -117.865283 207 67ft 0kts
29-Jul-20 19:09 33.667377 -117.874079 207 190ft 158kts
29-Jul-20 19:11 33.620506 -117.892733 185 2663ft 190kts
29-Jul-20 19:11 33.567161 -117.892727 167 4285ft 260kts
29-Jul-20 19:13 33.492015 -117.828614 117 6404ft 298kts
29-Jul-20 19:13 33.477389 -117.750541 90 6320ft 284kts
29-Jul-20 19:14 33.498654 -117.661303 61 9031ft 294kts
29-Jul-20 19:15 33.543668 -117.569313 60 10225ft 347kts
29-Jul-20 19:16 33.570995 -117.458807 96 11251ft 370kts
29-Jul-20 19:17 33.540716 -117.337225 111 13426ft 390kts
29-Jul-20 19:18 33.489045 -117.222059 130 15942ft 399kts
29-Jul-20 19:20 33.397290 -117.109847 138 18715ft 413kts
29-Jul-20 19:20 33.326540 -117.029361 139 20274ft 430kts
29-Jul-20 19:21 33.235320 -116.931547 141 21957ft 450kts
29-Jul-20 19:22 33.138280 -116.832441 141 23519ft 465kts
29-Jul-20 19:23 33.039630 -116.729128 139 24968ft 480kts
29-Jul-20 19:24 32.939623 -116.622618 137 26749ft 482kts
29-Jul-20 19:25 32.843265 -116.513425 125 28653ft 479kts
29-Jul-20 19:26 32.801901 -116.366154 92 30453ft 472kts
29-Jul-20 19:27 32.792415 -116.210240 92 32092ft 471kts
29-Jul-20 19:28 32.783259 -116.055794 92 33693ft 468kts
29-Jul-20 19:29 32.774073 -115.902288 92 35255ft 463kts
29-Jul-20 19:30 32.764807 -115.750207 92 36660ft 460kts
29-Jul-20 19:31 32.755240 -115.596226 92 36777ft 471kts
29-Jul-20 19:32 32.751288 -115.441968 87 36772ft 466kts
29-Jul-20 19:33 32.754389 -115.287733 87 36778ft 467kts
29-Jul-20 19:34 32.757843 -115.133903 86 36787ft 466kts
29-Jul-20 19:35 32.761157 -114.981267 86 36787ft 459kts
29-Jul-20 19:36 32.763967 -114.830198 85 36788ft 457kts
29-Jul-20 19:37 32.766861 -114.679636 85 36788ft 458kts
29-Jul-20 19:38 32.769325 -114.528508 86 36793ft 457kts
29-Jul-20 19:39 32.771303 -114.377323 85 36796ft 457kts
29-Jul-20 19:40 32.773274 -114.226088 86 36796ft 457kts
29-Jul-20 19:41 32.775128 -114.074850 86 36796ft 457kts
29-Jul-20 19:42 32.784204 -113.925241 78 36796ft 454kts
29-Jul-20 19:43 32.804265 -113.777203 77 36796ft 454kts
29-Jul-20 19:44 32.825043 -113.629154 77 36794ft 451kts
29-Jul-20 19:45 32.845465 -113.483504 77 36797ft 448kts
29-Jul-20 19:46 32.866098 -113.336583 77 36201ft 458kts
29-Jul-20 19:47 32.886814 -113.187927 77 33287ft 454kts
29-Jul-20 19:48 32.907103 -113.041075 78 30132ft 449kts
29-Jul-20 19:49 32.926563 -112.898841 78 27715ft 426kts
29-Jul-20 19:50 32.945004 -112.762793 78 25352ft 409kts
29-Jul-20 19:51 32.930387 -112.626697 107 23809ft 418kts
29-Jul-20 19:52 32.885620 -112.495200 111 23795ft 428kts
29-Jul-20 19:53 32.837296 -112.366271 112 23797ft 429kts
29-Jul-20 19:54 32.788239 -112.238452 112 23594ft 403kts
29-Jul-20 19:55 32.740438 -112.114826 112 23591ft 415kts
29-Jul-20 19:56 32.692514 -111.991582 112 23596ft 427kts
29-Jul-20 19:57 32.643830 -111.866910 112 21572ft 436kts
29-Jul-20 19:58 32.592177 -111.735116 113 16867ft 447kts
29-Jul-20 19:59 32.541965 -111.617632 123 14689ft 377kts
29-Jul-20 20:00 32.481156 -111.521465 125 11960ft 354kts
29-Jul-20 20:01 32.420944 -111.426272 125 11926ft 360kts
29-Jul-20 20:02 32.360829 -111.331077 123 11926ft 361kts
29-Jul-20 20:03 32.287226 -111.250556 139 11557ft 363kts
29-Jul-20 20:04 32.209002 -111.175594 139 10909ft 361kts
29-Jul-20 20:05 32.132353 -111.102010 139 10250ft 339kts
29-Jul-20 20:06 32.063406 -111.035973 139 9519ft 301kts
29-Jul-20 20:07 31.999508 -110.974814 139 8294ft 293kts
29-Jul-20 20:08 31.942523 -110.909528 100 7067ft 281kts
29-Jul-20 20:09 31.969693 -110.837839 16 6867ft 231kts
29-Jul-20 20:10 32.024992 -110.824803 349 6290ft 189kts
29-Jul-20 20:11 32.057495 -110.869638 309 4410ft 177kts
29-Jul-20 20:12 32.087695 -110.905850 315 3077ft 150kts
29-Jul-20 20:13 32.115031 -110.938123 315 2614ft 76kts
29-Jul-20 20:14 32.120738 -110.940042 72 2603ft 2kts
29-Jul-20 20:15 32.120757 -110.939974 72 2603ft 0kts

Navigation Log

Ident Type
Flight plan parsing failed, navigation log unavailable